createdAt,value
2023-08-15T00:01:49.927Z,16.58
2023-08-15T00:04:16.837Z,16.38
2023-08-15T00:06:43.484Z,16.48
2023-08-15T00:09:10.170Z,16.47
2023-08-15T00:11:36.821Z,16.56
2023-08-15T00:14:03.565Z,16.40
2023-08-15T00:16:30.406Z,16.52
2023-08-15T00:18:57.083Z,16.50
2023-08-15T00:21:23.728Z,16.47
2023-08-15T00:23:50.496Z,16.45
2023-08-15T00:26:17.342Z,16.44
2023-08-15T00:28:46.607Z,16.20
2023-08-15T00:31:13.297Z,16.02
2023-08-15T00:33:42.963Z,16.32
2023-08-15T00:36:09.605Z,16.32
2023-08-15T00:38:36.248Z,16.31
2023-08-15T00:41:02.904Z,16.16
2023-08-15T00:43:31.977Z,16.17
2023-08-15T00:46:01.353Z,16.17
2023-08-15T00:48:31.428Z,16.18
2023-08-15T00:51:01.189Z,16.12
2023-08-15T00:53:31.419Z,16.12
2023-08-15T00:55:59.269Z,15.87
2023-08-15T00:58:27.311Z,16.05
2023-08-15T01:00:54.033Z,16.01
2023-08-15T01:03:21.166Z,15.93
2023-08-15T01:05:48.887Z,15.94
2023-08-15T01:08:16.551Z,15.93
2023-08-15T01:10:44.196Z,15.89
2023-08-15T01:13:17.178Z,15.85
2023-08-15T01:15:51.598Z,15.74
2023-08-15T01:18:32.287Z,15.58
2023-08-15T01:21:00.391Z,15.70
2023-08-15T01:23:52.838Z,15.66
2023-08-15T01:26:21.881Z,15.66
2023-08-15T01:28:51.193Z,15.59
2023-08-15T01:31:30.049Z,15.65
2023-08-15T01:34:08.030Z,15.61
2023-08-15T01:36:41.274Z,15.58
2023-08-15T01:39:08.650Z,15.56
2023-08-15T01:41:41.060Z,15.06
2023-08-15T01:44:14.421Z,15.36
2023-08-15T01:46:47.732Z,15.36
2023-08-15T01:49:17.473Z,15.36
2023-08-15T01:51:46.227Z,15.39
2023-08-15T01:54:12.905Z,15.43
2023-08-15T01:56:39.805Z,15.39
2023-08-15T01:59:09.603Z,15.18
2023-08-15T02:01:41.024Z,15.24
2023-08-15T02:04:07.768Z,15.36
2023-08-15T02:06:37.421Z,14.89
2023-08-15T02:09:06.602Z,15.35
2023-08-15T02:11:33.246Z,15.09
2023-08-15T02:14:00.079Z,15.36
2023-08-15T02:16:31.443Z,15.13
2023-08-15T02:19:00.637Z,15.44
2023-08-15T02:21:27.297Z,15.34
2023-08-15T02:23:53.999Z,15.51
2023-08-15T02:26:20.696Z,14.91
2023-08-15T02:28:49.709Z,15.54
2023-08-15T02:31:18.575Z,15.43
2023-08-15T02:33:45.280Z,15.43
2023-08-15T02:36:11.998Z,15.52
2023-08-15T02:38:38.634Z,15.45
2023-08-15T02:41:08.278Z,15.44
2023-08-15T02:43:35.196Z,15.00
2023-08-15T02:46:02.450Z,15.32
2023-08-15T02:48:31.906Z,14.81
2023-08-15T02:51:11.915Z,14.57
2023-08-15T02:53:43.948Z,14.43
2023-08-15T02:56:11.612Z,15.20
2023-08-15T02:58:40.691Z,15.28
2023-08-15T03:01:10.567Z,14.42
2023-08-15T03:03:40.295Z,15.23
2023-08-15T03:06:06.978Z,15.23
2023-08-15T03:08:33.595Z,15.41
2023-08-15T03:11:00.308Z,15.28
2023-08-15T03:13:27.032Z,15.26
2023-08-15T03:15:55.363Z,15.29
2023-08-15T03:18:22.066Z,15.25
2023-08-15T03:21:06.476Z,15.09
2023-08-15T03:23:35.925Z,15.13
2023-08-15T03:26:06.273Z,15.15
2023-08-15T03:28:33.697Z,15.11
2023-08-15T03:31:10.297Z,15.08
2023-08-15T03:33:39.962Z,14.89
2023-08-15T03:36:07.080Z,14.90
2023-08-15T03:38:35.958Z,14.99
2023-08-15T03:41:08.506Z,14.91
2023-08-15T03:43:38.507Z,14.95
2023-08-15T03:46:10.009Z,14.94
2023-08-15T03:48:37.929Z,14.87
2023-08-15T03:51:05.646Z,14.76
2023-08-15T03:53:34.527Z,14.88
2023-08-15T03:56:01.108Z,14.84
2023-08-15T03:58:27.933Z,14.68
2023-08-15T04:00:54.702Z,14.70
2023-08-15T04:03:21.361Z,14.75
2023-08-15T04:05:50.692Z,14.78
2023-08-15T04:08:21.130Z,14.70
2023-08-15T04:10:48.423Z,14.73
2023-08-15T04:13:15.835Z,14.52
2023-08-15T04:15:42.612Z,14.63
2023-08-15T04:18:12.618Z,14.08
2023-08-15T04:20:43.763Z,14.50
2023-08-15T04:23:11.404Z,14.61
2023-08-15T04:25:42.298Z,14.50
2023-08-15T04:28:11.277Z,14.41
2023-08-15T04:30:38.134Z,14.56
2023-08-15T04:33:05.290Z,14.49
2023-08-15T04:35:36.796Z,14.29
2023-08-15T04:38:03.776Z,14.44
2023-08-15T04:40:45.047Z,14.46
2023-08-15T04:43:12.295Z,14.49
2023-08-15T04:45:50.312Z,14.46
2023-08-15T04:48:17.020Z,14.25
2023-08-15T04:50:43.755Z,14.43
2023-08-15T04:53:10.411Z,14.42
2023-08-15T04:55:37.115Z,14.38
2023-08-15T04:58:06.306Z,13.96
2023-08-15T05:00:36.289Z,14.41
2023-08-15T05:03:03.310Z,14.34
2023-08-15T05:05:32.519Z,14.39
2023-08-15T05:07:59.292Z,14.40
2023-08-15T05:10:25.924Z,14.24
2023-08-15T05:12:52.775Z,14.40
2023-08-15T05:15:19.445Z,14.21
2023-08-15T05:17:49.648Z,14.40
2023-08-15T05:20:16.772Z,14.35
2023-08-15T05:22:43.562Z,14.35
2023-08-15T05:25:10.435Z,14.38
2023-08-15T05:27:37.766Z,14.33
2023-08-15T05:30:04.737Z,14.47
2023-08-15T05:32:31.422Z,14.31
2023-08-15T05:35:00.190Z,14.10
2023-08-15T05:37:29.557Z,14.54
2023-08-15T05:39:56.187Z,14.37
2023-08-15T05:42:22.857Z,14.59
2023-08-15T05:44:50.677Z,14.61
2023-08-15T05:47:22.064Z,14.65
2023-08-15T05:49:48.973Z,14.63
2023-08-15T05:52:15.623Z,14.71
2023-08-15T05:54:42.326Z,14.56
2023-08-15T05:57:09.276Z,14.64
2023-08-15T05:59:35.956Z,14.79
2023-08-15T06:02:07.663Z,14.67
2023-08-15T06:04:34.508Z,14.82
2023-08-15T06:07:01.263Z,14.78
2023-08-15T06:09:28.460Z,14.93
2023-08-15T06:11:55.271Z,14.95
2023-08-15T06:14:24.290Z,14.75
2023-08-15T06:16:53.746Z,15.12
2023-08-15T06:19:23.114Z,15.24
2023-08-15T06:21:52.128Z,15.17
2023-08-15T06:24:18.856Z,15.28
2023-08-15T06:26:47.633Z,15.45
2023-08-15T06:29:14.320Z,15.51
2023-08-15T06:31:41.141Z,15.46
2023-08-15T06:34:08.578Z,15.35
2023-08-15T06:36:35.356Z,15.69
2023-08-15T06:39:02.318Z,15.74
2023-08-15T06:41:29.043Z,15.90
2023-08-15T06:43:55.839Z,15.99
2023-08-15T06:46:27.499Z,16.04
2023-08-15T06:48:54.264Z,16.56
2023-08-15T06:51:21.026Z,17.18
2023-08-15T06:53:50.888Z,18.46
2023-08-15T06:56:18.221Z,19.48
2023-08-15T06:58:44.848Z,20.47
2023-08-15T07:01:13.383Z,21.43
2023-08-15T07:03:42.393Z,22.21
2023-08-15T07:06:09.160Z,23.12
2023-08-15T07:08:35.976Z,24.20
2023-08-15T07:11:04.015Z,25.11
2023-08-15T07:13:32.165Z,26.00
2023-08-15T07:15:59.140Z,26.79
2023-08-15T07:18:29.167Z,27.49
2023-08-15T07:20:55.917Z,27.79
2023-08-15T07:23:22.673Z,28.70
2023-08-15T07:25:51.806Z,29.25
2023-08-15T07:28:19.042Z,29.77
2023-08-15T07:30:49.901Z,30.32
2023-08-15T07:33:17.441Z,30.83
2023-08-15T07:35:44.279Z,31.41
2023-08-15T07:38:11.060Z,31.79
2023-08-15T07:40:37.973Z,31.72
2023-08-15T07:43:04.876Z,32.86
2023-08-15T07:45:31.591Z,33.20
2023-08-15T07:47:59.715Z,33.72
2023-08-15T07:50:29.802Z,34.09
2023-08-15T07:53:00.543Z,34.31
2023-08-15T07:55:33.295Z,34.59
2023-08-15T07:58:00.318Z,34.68
2023-08-15T08:00:27.171Z,34.91
2023-08-15T08:02:56.425Z,35.10
2023-08-15T08:05:23.777Z,35.26
2023-08-15T08:07:55.779Z,35.54
2023-08-15T08:10:24.792Z,35.58
2023-08-15T08:12:51.557Z,36.02
2023-08-15T08:15:24.728Z,36.30
2023-08-15T08:17:53.980Z,36.61
2023-08-15T08:20:21.798Z,36.62
2023-08-15T08:22:48.510Z,36.55
2023-08-15T08:25:18.023Z,36.66
2023-08-15T08:27:48.694Z,36.77
2023-08-15T08:30:18.547Z,36.90
2023-08-15T08:32:45.537Z,36.87
2023-08-15T08:35:16.556Z,36.68
2023-08-15T08:37:44.587Z,36.11
2023-08-15T08:40:14.029Z,35.59
2023-08-15T08:42:42.053Z,35.40
2023-08-15T08:45:12.736Z,34.74
2023-08-15T08:47:40.949Z,35.49
2023-08-15T08:50:12.465Z,35.64
2023-08-15T08:52:43.569Z,35.60
2023-08-15T08:55:10.628Z,35.61
2023-08-15T08:57:38.248Z,35.67
2023-08-15T09:00:09.013Z,35.87
2023-08-15T09:02:36.796Z,36.09
2023-08-15T09:05:05.391Z,36.27
2023-08-15T09:07:38.446Z,36.39
2023-08-15T09:10:08.723Z,36.50
2023-08-15T09:12:36.997Z,36.48
2023-08-15T09:15:11.008Z,36.61
2023-08-15T09:17:42.285Z,36.73
2023-08-15T09:20:17.865Z,36.79
2023-08-15T09:22:48.404Z,36.88
2023-08-15T09:25:17.023Z,36.88
2023-08-15T09:27:44.114Z,36.98
2023-08-15T09:30:12.915Z,37.00
2023-08-15T09:32:43.332Z,36.96
2023-08-15T09:35:12.056Z,36.96
2023-08-15T09:37:48.836Z,36.78
2023-08-15T09:40:18.021Z,36.94
2023-08-15T09:42:48.597Z,36.95
2023-08-15T09:45:22.219Z,36.88
2023-08-15T09:47:49.097Z,36.85
2023-08-15T09:50:17.358Z,36.76
2023-08-15T09:52:53.156Z,36.59
2023-08-15T09:55:20.949Z,36.21
2023-08-15T09:57:48.033Z,36.06
2023-08-15T10:00:18.457Z,35.89
2023-08-15T10:03:25.311Z,35.59
2023-08-15T10:05:59.122Z,35.59
2023-08-15T10:08:26.023Z,35.37
2023-08-15T10:10:57.835Z,35.14
2023-08-15T10:13:29.963Z,34.84
2023-08-15T10:15:59.360Z,34.41
2023-08-15T10:18:26.738Z,34.46
2023-08-15T10:20:54.828Z,34.28
2023-08-15T10:23:25.284Z,34.03
2023-08-15T10:25:54.242Z,33.63
2023-08-15T10:28:21.380Z,33.59
2023-08-15T10:30:52.743Z,32.97
2023-08-15T10:33:21.761Z,33.01
2023-08-15T10:35:50.713Z,32.89
2023-08-15T10:38:19.905Z,32.75
2023-08-15T10:40:47.632Z,32.51
2023-08-15T10:43:17.947Z,32.60
2023-08-15T10:45:47.516Z,32.65
2023-08-15T10:48:14.785Z,32.67
2023-08-15T10:50:47.039Z,32.51
2023-08-15T10:53:18.891Z,32.25
2023-08-15T10:55:48.271Z,32.03
2023-08-15T10:58:16.464Z,32.07
2023-08-15T11:00:45.672Z,31.87
2023-08-15T11:03:15.458Z,32.11
2023-08-15T11:05:42.982Z,32.08
2023-08-15T11:08:22.206Z,32.03
2023-08-15T11:10:52.630Z,32.35
2023-08-15T11:13:19.685Z,32.49
2023-08-15T11:15:48.631Z,32.34
2023-08-15T11:18:24.301Z,32.16
2023-08-15T11:20:55.564Z,31.90
2023-08-15T11:23:24.750Z,31.65
2023-08-15T11:25:51.434Z,31.61
2023-08-15T11:28:20.229Z,31.52
2023-08-15T11:30:51.638Z,31.54
2023-08-15T11:33:18.427Z,31.56
2023-08-15T11:35:48.206Z,31.42
2023-08-15T11:38:20.256Z,31.50
2023-08-15T11:40:47.885Z,31.47
2023-08-15T11:43:15.539Z,31.40
2023-08-15T11:45:45.087Z,31.28
2023-08-15T11:48:12.920Z,31.23
2023-08-15T11:50:44.707Z,31.18
2023-08-15T11:53:18.996Z,31.08
2023-08-15T11:55:50.601Z,31.10
2023-08-15T11:58:34.819Z,31.17
2023-08-15T12:01:06.553Z,31.00
2023-08-15T12:03:34.686Z,30.70
2023-08-15T12:06:06.431Z,30.74
2023-08-15T12:08:33.587Z,30.35
2023-08-15T12:11:05.193Z,30.65
2023-08-15T12:13:34.252Z,30.66
2023-08-15T12:16:02.120Z,30.57
2023-08-15T12:18:29.562Z,30.40
2023-08-15T12:20:59.537Z,30.21
2023-08-15T12:23:28.674Z,29.72
2023-08-15T12:25:56.593Z,29.95
2023-08-15T12:28:23.871Z,29.84
2023-08-15T12:30:51.065Z,29.65
2023-08-15T12:33:27.578Z,29.51
2023-08-15T12:36:04.938Z,29.35
2023-08-15T12:38:31.611Z,29.24
2023-08-15T12:40:58.273Z,29.14
2023-08-15T12:43:24.956Z,28.88
2023-08-15T12:45:54.123Z,28.83
2023-08-15T12:48:21.014Z,28.81
2023-08-15T12:50:47.624Z,28.75
2023-08-15T12:53:14.318Z,28.70
2023-08-15T12:55:41.023Z,28.62
2023-08-15T12:58:09.214Z,28.56
2023-08-15T13:00:36.759Z,28.43
2023-08-15T13:03:04.349Z,28.26
2023-08-15T13:05:35.879Z,28.34
2023-08-15T13:08:04.875Z,28.06
2023-08-15T13:10:31.614Z,28.16
2023-08-15T13:12:58.430Z,28.00
2023-08-15T13:15:25.648Z,27.80
2023-08-15T13:17:52.609Z,27.92
2023-08-15T13:20:19.432Z,27.94
2023-08-15T13:22:46.109Z,27.32
2023-08-15T13:25:12.805Z,27.49
2023-08-15T13:27:39.841Z,27.47
2023-08-15T13:30:07.348Z,27.36
2023-08-15T13:32:37.163Z,26.85
2023-08-15T13:35:04.049Z,26.88
2023-08-15T13:37:30.707Z,27.29
2023-08-15T13:39:58.772Z,27.08
2023-08-15T13:42:35.952Z,27.15
2023-08-15T13:45:07.597Z,27.10
2023-08-15T13:47:36.274Z,26.85
2023-08-15T13:50:03.387Z,26.91
2023-08-15T13:52:30.224Z,26.92
2023-08-15T13:54:56.869Z,26.93
2023-08-15T13:57:28.351Z,26.68
2023-08-15T13:59:56.005Z,26.68
2023-08-15T14:02:22.842Z,26.61
2023-08-15T14:04:51.913Z,26.37
2023-08-15T14:07:18.640Z,26.42
2023-08-15T14:09:45.432Z,26.37
2023-08-15T14:12:12.092Z,26.37
2023-08-15T14:14:41.484Z,26.37
2023-08-15T14:17:08.534Z,26.38
2023-08-15T14:19:35.376Z,26.38
2023-08-15T14:22:04.542Z,26.20
2023-08-15T14:24:34.382Z,26.28
2023-08-15T14:27:01.318Z,25.99
2023-08-15T14:29:30.978Z,26.37
2023-08-15T14:31:57.725Z,26.37
2023-08-15T14:34:24.392Z,26.33
2023-08-15T14:36:51.145Z,26.39
2023-08-15T14:39:20.386Z,26.35
2023-08-15T14:41:47.033Z,26.46
2023-08-15T14:44:13.772Z,26.47
2023-08-15T14:46:40.493Z,26.44
2023-08-15T14:49:07.218Z,26.42
2023-08-15T14:51:33.874Z,26.32
2023-08-15T14:54:03.034Z,26.20
2023-08-15T14:56:29.815Z,26.27
2023-08-15T14:58:56.597Z,26.27
2023-08-15T15:01:25.866Z,26.20
2023-08-15T15:03:56.951Z,26.17
2023-08-15T15:06:24.113Z,26.07
2023-08-15T15:08:51.340Z,25.53
2023-08-15T15:11:17.996Z,26.00
2023-08-15T15:13:46.678Z,25.93
2023-08-15T15:16:14.009Z,25.89
2023-08-15T15:18:42.095Z,25.42
2023-08-15T15:21:08.869Z,25.81
2023-08-15T15:23:35.547Z,25.49
2023-08-15T15:26:02.360Z,25.64
2023-08-15T15:28:29.104Z,25.62
2023-08-15T15:30:56.066Z,25.62
2023-08-15T15:33:27.606Z,25.32
2023-08-15T15:35:54.337Z,25.48
2023-08-15T15:38:23.407Z,25.46
2023-08-15T15:40:50.078Z,25.39
2023-08-15T15:43:21.441Z,25.32
2023-08-15T15:45:50.487Z,25.30
2023-08-15T15:48:17.366Z,24.92
2023-08-15T15:50:47.428Z,25.13
2023-08-15T15:53:14.098Z,25.06
2023-08-15T15:55:40.727Z,24.96
2023-08-15T15:58:09.716Z,24.53
2023-08-15T16:00:37.020Z,25.05
2023-08-15T16:03:03.967Z,24.89
2023-08-15T16:05:33.646Z,24.79
2023-08-15T16:08:00.416Z,24.97
2023-08-15T16:10:29.581Z,24.88
2023-08-15T16:13:00.998Z,24.90
2023-08-15T16:15:27.764Z,24.61
2023-08-15T16:17:54.481Z,24.66
2023-08-15T16:20:21.231Z,24.66
2023-08-15T16:22:47.916Z,24.58
2023-08-15T16:25:14.715Z,24.52
2023-08-15T16:27:43.778Z,24.46
2023-08-15T16:30:17.133Z,24.47
2023-08-15T16:32:49.245Z,24.37
2023-08-15T16:35:16.310Z,24.37
2023-08-15T16:37:42.965Z,23.72
2023-08-15T16:40:11.209Z,24.34
2023-08-15T16:42:42.716Z,24.35
2023-08-15T16:45:12.792Z,24.31
2023-08-15T16:47:44.215Z,24.14
2023-08-15T16:50:10.967Z,24.12
2023-08-15T16:52:40.102Z,24.15
2023-08-15T16:55:06.992Z,24.20
2023-08-15T16:57:35.909Z,24.15
2023-08-15T17:00:02.690Z,23.59
2023-08-15T17:02:29.437Z,24.04
2023-08-15T17:04:56.172Z,24.08
2023-08-15T17:07:22.884Z,23.65
2023-08-15T17:09:52.168Z,23.94
2023-08-15T17:12:21.178Z,23.81
2023-08-15T17:14:48.116Z,23.78
2023-08-15T17:17:14.818Z,23.59
2023-08-15T17:19:45.797Z,23.60
2023-08-15T17:22:16.439Z,23.67
2023-08-15T17:24:46.136Z,23.60
2023-08-15T17:27:15.441Z,22.67
2023-08-15T17:29:42.097Z,23.44
2023-08-15T17:32:08.902Z,23.41
2023-08-15T17:34:38.549Z,23.32
2023-08-15T17:37:10.255Z,23.27
2023-08-15T17:39:37.342Z,23.13
2023-08-15T17:42:04.102Z,23.20
2023-08-15T17:44:30.981Z,23.09
2023-08-15T17:47:00.154Z,22.83
2023-08-15T17:49:31.605Z,22.93
2023-08-15T17:51:58.278Z,22.90
2023-08-15T17:54:24.999Z,22.82
2023-08-15T17:56:51.664Z,22.71
2023-08-15T17:59:18.411Z,22.63
2023-08-15T18:01:48.714Z,22.50
2023-08-15T18:04:15.808Z,22.46
2023-08-15T18:06:45.045Z,21.64
2023-08-15T18:09:11.856Z,22.24
2023-08-15T18:11:41.260Z,22.04
2023-08-15T18:14:08.018Z,21.99
2023-08-15T18:16:36.946Z,22.02
2023-08-15T18:19:03.766Z,21.85
2023-08-15T18:21:32.843Z,21.57
2023-08-15T18:23:59.640Z,21.93
2023-08-15T18:26:31.434Z,21.16
2023-08-15T18:28:58.114Z,21.80
2023-08-15T18:31:24.864Z,21.65
2023-08-15T18:33:52.049Z,21.66
2023-08-15T18:36:18.745Z,21.59
2023-08-15T18:38:45.503Z,21.25
2023-08-15T18:41:12.532Z,21.47
2023-08-15T18:43:39.277Z,21.02
2023-08-15T18:46:06.066Z,21.32
2023-08-15T18:48:35.165Z,21.36
2023-08-15T18:51:01.931Z,21.30
2023-08-15T18:53:28.740Z,21.14
2023-08-15T18:55:55.464Z,21.05
2023-08-15T18:58:22.218Z,21.13
2023-08-15T19:00:51.210Z,21.05
2023-08-15T19:03:20.339Z,20.93
2023-08-15T19:05:47.260Z,20.82
2023-08-15T19:08:14.360Z,20.88
2023-08-15T19:10:48.313Z,20.83
2023-08-15T19:13:22.289Z,20.66
2023-08-15T19:15:49.960Z,20.71
2023-08-15T19:18:16.813Z,20.56
2023-08-15T19:20:43.866Z,20.59
2023-08-15T19:23:10.827Z,20.41
2023-08-15T19:25:40.816Z,20.47
2023-08-15T19:28:07.741Z,20.08
2023-08-15T19:30:34.537Z,20.19
2023-08-15T19:33:01.274Z,20.26
2023-08-15T19:35:27.995Z,19.78
2023-08-15T19:37:55.037Z,20.17
2023-08-15T19:40:21.666Z,20.10
2023-08-15T19:42:53.140Z,20.17
2023-08-15T19:45:22.144Z,20.03
2023-08-15T19:47:51.089Z,20.07
2023-08-15T19:50:17.777Z,19.97
2023-08-15T19:52:44.488Z,19.74
2023-08-15T19:55:11.886Z,19.96
2023-08-15T19:57:39.028Z,19.83
2023-08-15T20:00:08.118Z,19.99
2023-08-15T20:02:34.858Z,19.97
2023-08-15T20:05:01.593Z,19.94
2023-08-15T20:07:30.668Z,19.91
2023-08-15T20:10:09.819Z,19.87
2023-08-15T20:12:38.885Z,19.72
2023-08-15T20:15:06.124Z,19.80
2023-08-15T20:17:32.829Z,19.77
2023-08-15T20:19:59.782Z,19.30
2023-08-15T20:22:26.949Z,19.72
2023-08-15T20:24:54.152Z,19.70
2023-08-15T20:27:20.919Z,19.60
2023-08-15T20:29:54.277Z,19.29
2023-08-15T20:32:23.589Z,19.56
2023-08-15T20:34:52.648Z,19.56
2023-08-15T20:37:21.780Z,19.38
2023-08-15T20:39:48.549Z,19.04
2023-08-15T20:42:20.235Z,19.46
2023-08-15T20:44:46.869Z,19.42
2023-08-15T20:47:13.814Z,19.45
2023-08-15T20:49:42.375Z,19.33
2023-08-15T20:52:11.637Z,19.39
2023-08-15T20:54:38.329Z,19.02
2023-08-15T20:57:05.320Z,19.16
2023-08-15T20:59:32.047Z,19.14
2023-08-15T21:02:00.461Z,19.15
2023-08-15T21:04:27.197Z,19.19
2023-08-15T21:06:54.082Z,19.22
2023-08-15T21:09:20.815Z,19.20
2023-08-15T21:11:48.104Z,18.99
2023-08-15T21:14:15.806Z,19.15
2023-08-15T21:16:42.952Z,18.73
2023-08-15T21:19:11.843Z,19.08
2023-08-15T21:21:38.536Z,19.04
2023-08-15T21:24:07.972Z,19.01
2023-08-15T21:26:39.562Z,18.98
2023-08-15T21:29:09.384Z,18.95
2023-08-15T21:31:36.036Z,18.86
2023-08-15T21:34:02.810Z,18.40
2023-08-15T21:36:29.491Z,18.76
2023-08-15T21:38:56.162Z,18.68
2023-08-15T21:41:25.170Z,18.83
2023-08-15T21:43:54.158Z,18.79
2023-08-15T21:46:23.374Z,18.77
2023-08-15T21:48:50.029Z,18.72
2023-08-15T21:51:18.921Z,18.74
2023-08-15T21:53:45.642Z,18.67
2023-08-15T21:56:12.296Z,18.69
2023-08-15T21:58:38.947Z,18.61
2023-08-15T22:01:05.650Z,18.45
2023-08-15T22:03:34.933Z,18.60
2023-08-15T22:06:04.001Z,18.48
2023-08-15T22:08:30.730Z,18.56
2023-08-15T22:10:57.388Z,18.49
2023-08-15T22:13:24.069Z,18.47
2023-08-15T22:15:53.717Z,18.50
2023-08-15T22:18:21.913Z,18.47
2023-08-15T22:20:49.576Z,18.45
2023-08-15T22:23:16.533Z,18.39
2023-08-15T22:25:47.484Z,18.41
2023-08-15T22:28:15.272Z,18.40
2023-08-15T22:30:42.466Z,18.01
2023-08-15T22:33:09.360Z,18.36
2023-08-15T22:35:42.084Z,18.19
2023-08-15T22:38:09.199Z,18.29
2023-08-15T22:40:36.525Z,18.26
2023-08-15T22:43:04.749Z,18.17
2023-08-15T22:45:31.572Z,18.22
2023-08-15T22:48:00.562Z,17.98
2023-08-15T22:50:27.257Z,18.16
2023-08-15T22:52:58.381Z,17.96
2023-08-15T22:55:25.094Z,18.13
2023-08-15T22:57:53.889Z,17.88
2023-08-15T23:00:23.090Z,18.08
2023-08-15T23:02:49.785Z,18.07
2023-08-15T23:05:16.625Z,17.97
2023-08-15T23:07:43.826Z,18.04
2023-08-15T23:10:10.910Z,18.00
2023-08-15T23:12:39.810Z,17.49
2023-08-15T23:15:07.604Z,17.70
2023-08-15T23:17:36.653Z,17.74
2023-08-15T23:20:03.463Z,17.91
2023-08-15T23:22:30.109Z,17.90
2023-08-15T23:24:59.054Z,17.87
2023-08-15T23:27:26.038Z,17.86
2023-08-15T23:29:52.921Z,17.84
2023-08-15T23:32:19.579Z,17.53
2023-08-15T23:34:46.341Z,17.65
2023-08-15T23:37:13.089Z,17.69
2023-08-15T23:39:42.218Z,17.41
2023-08-15T23:42:13.463Z,17.48
2023-08-15T23:44:40.092Z,17.50
2023-08-15T23:47:12.292Z,17.54
2023-08-15T23:49:38.931Z,17.62
2023-08-15T23:52:06.063Z,17.59
2023-08-15T23:54:35.227Z,17.65
2023-08-15T23:57:04.591Z,17.39
2023-08-15T23:59:31.555Z,17.63
